sensor_id;sensor_type;location;lat;lon;timestamp;P1;durP1;ratioP1;P2;durP2;ratioP2
58252;SDS011;44050;48.884;8.762;2023-02-17T00:00:15;1.25;;;1.15;;
58252;SDS011;44050;48.884;8.762;2023-02-17T00:02:46;2.85;;;1.42;;
58252;SDS011;44050;48.884;8.762;2023-02-17T00:05:16;1.65;;;1.15;;
58252;SDS011;44050;48.884;8.762;2023-02-17T00:07:47;1.52;;;1.42;;
58252;SDS011;44050;48.884;8.762;2023-02-17T00:10:18;1.27;;;1.05;;
58252;SDS011;44050;48.884;8.762;2023-02-17T00:12:49;0.88;;;0.88;;
58252;SDS011;44050;48.884;8.762;2023-02-17T00:15:19;1.17;;;0.98;;
58252;SDS011;44050;48.884;8.762;2023-02-17T00:17:50;1.60;;;1.33;;
58252;SDS011;44050;48.884;8.762;2023-02-17T00:20:21;1.15;;;1.13;;
58252;SDS011;44050;48.884;8.762;2023-02-17T00:22:51;1.25;;;1.13;;
58252;SDS011;44050;48.884;8.762;2023-02-17T00:25:22;1.42;;;1.27;;
58252;SDS011;44050;48.884;8.762;2023-02-17T00:27:53;2.30;;;1.85;;
58252;SDS011;44050;48.884;8.762;2023-02-17T00:30:24;1.08;;;1.00;;
58252;SDS011;44050;48.884;8.762;2023-02-17T00:32:56;1.98;;;1.25;;
58252;SDS011;44050;48.884;8.762;2023-02-17T00:35:27;1.02;;;1.02;;
58252;SDS011;44050;48.884;8.762;2023-02-17T00:37:58;1.17;;;1.05;;
58252;SDS011;44050;48.884;8.762;2023-02-17T00:40:29;3.58;;;1.27;;
58252;SDS011;44050;48.884;8.762;2023-02-17T00:42:59;1.83;;;1.13;;
58252;SDS011;44050;48.884;8.762;2023-02-17T00:45:30;4.97;;;1.70;;
58252;SDS011;44050;48.884;8.762;2023-02-17T00:48:04;1.60;;;1.50;;
58252;SDS011;44050;48.884;8.762;2023-02-17T00:50:34;5.07;;;1.63;;
58252;SDS011;44050;48.884;8.762;2023-02-17T00:53:08;2.28;;;1.15;;
58252;SDS011;44050;48.884;8.762;2023-02-17T00:55:39;4.13;;;1.23;;
58252;SDS011;44050;48.884;8.762;2023-02-17T00:58:09;1.50;;;1.33;;
58252;SDS011;44050;48.884;8.762;2023-02-17T01:00:43;3.00;;;1.23;;
58252;SDS011;44050;48.884;8.762;2023-02-17T01:03:14;1.58;;;1.23;;
58252;SDS011;44050;48.884;8.762;2023-02-17T01:05:45;1.00;;;0.93;;
58252;SDS011;44050;48.884;8.762;2023-02-17T01:08:18;1.23;;;0.77;;
58252;SDS011;44050;48.884;8.762;2023-02-17T01:10:50;1.30;;;1.20;;
58252;SDS011;44050;48.884;8.762;2023-02-17T01:13:21;2.97;;;1.02;;
58252;SDS011;44050;48.884;8.762;2023-02-17T01:15:52;0.85;;;0.85;;
58252;SDS011;44050;48.884;8.762;2023-02-17T01:18:24;2.78;;;1.70;;
58252;SDS011;44050;48.884;8.762;2023-02-17T01:20:55;0.77;;;0.77;;
58252;SDS011;44050;48.884;8.762;2023-02-17T01:23:25;1.00;;;1.00;;
58252;SDS011;44050;48.884;8.762;2023-02-17T01:25:56;1.10;;;0.85;;
58252;SDS011;44050;48.884;8.762;2023-02-17T01:28:27;1.10;;;1.00;;
58252;SDS011;44050;48.884;8.762;2023-02-17T01:30:58;1.45;;;1.35;;
58252;SDS011;44050;48.884;8.762;2023-02-17T01:33:34;4.63;;;1.30;;
58252;SDS011;44050;48.884;8.762;2023-02-17T01:36:06;2.22;;;1.17;;
58252;SDS011;44050;48.884;8.762;2023-02-17T01:38:37;1.15;;;1.05;;
58252;SDS011;44050;48.884;8.762;2023-02-17T01:41:08;1.05;;;0.98;;
58252;SDS011;44050;48.884;8.762;2023-02-17T01:43:39;1.25;;;1.15;;
58252;SDS011;44050;48.884;8.762;2023-02-17T01:46:10;0.90;;;0.90;;
58252;SDS011;44050;48.884;8.762;2023-02-17T01:48:43;2.05;;;0.95;;
58252;SDS011;44050;48.884;8.762;2023-02-17T01:51:17;1.27;;;0.95;;
58252;SDS011;44050;48.884;8.762;2023-02-17T01:53:58;1.08;;;1.00;;
58252;SDS011;44050;48.884;8.762;2023-02-17T01:56:31;1.67;;;1.05;;
58252;SDS011;44050;48.884;8.762;2023-02-17T01:59:04;4.30;;;1.30;;
58252;SDS011;44050;48.884;8.762;2023-02-17T02:01:35;2.05;;;1.75;;
58252;SDS011;44050;48.884;8.762;2023-02-17T02:04:06;2.75;;;2.10;;
58252;SDS011;44050;48.884;8.762;2023-02-17T02:06:37;1.67;;;1.27;;
58252;SDS011;44050;48.884;8.762;2023-02-17T02:09:24;3.70;;;1.48;;
58252;SDS011;44050;48.884;8.762;2023-02-17T02:11:57;1.85;;;1.73;;
58252;SDS011;44050;48.884;8.762;2023-02-17T02:14:34;3.47;;;1.50;;
58252;SDS011;44050;48.884;8.762;2023-02-17T02:17:11;0.98;;;0.80;;
58252;SDS011;44050;48.884;8.762;2023-02-17T02:28:08;1.38;;;1.27;;
58252;SDS011;44050;48.884;8.762;2023-02-17T02:33:21;1.58;;;1.48;;
58252;SDS011;44050;48.884;8.762;2023-02-17T02:38:40;1.40;;;1.30;;
58252;SDS011;44050;48.884;8.762;2023-02-17T02:41:14;3.13;;;1.58;;
58252;SDS011;44050;48.884;8.762;2023-02-17T02:43:47;2.50;;;1.63;;
58252;SDS011;44050;48.884;8.762;2023-02-17T02:46:18;1.25;;;1.15;;
58252;SDS011;44050;48.884;8.762;2023-02-17T02:48:49;2.17;;;1.95;;
58252;SDS011;44050;48.884;8.762;2023-02-17T02:54:04;3.10;;;1.60;;
58252;SDS011;44050;48.884;8.762;2023-02-17T03:04:34;1.77;;;1.67;;
58252;SDS011;44050;48.884;8.762;2023-02-17T03:07:10;2.00;;;1.55;;
58252;SDS011;44050;48.884;8.762;2023-02-17T03:09:51;1.02;;;0.93;;
58252;SDS011;44050;48.884;8.762;2023-02-17T03:12:23;2.95;;;2.30;;
58252;SDS011;44050;48.884;8.762;2023-02-17T03:17:44;2.00;;;1.30;;
58252;SDS011;44050;48.884;8.762;2023-02-17T03:20:14;1.27;;;1.17;;
58252;SDS011;44050;48.884;8.762;2023-02-17T03:22:46;4.18;;;1.40;;
58252;SDS011;44050;48.884;8.762;2023-02-17T03:25:18;4.65;;;2.13;;
58252;SDS011;44050;48.884;8.762;2023-02-17T03:27:49;1.65;;;1.25;;
58252;SDS011;44050;48.884;8.762;2023-02-17T03:30:20;2.25;;;1.90;;
58252;SDS011;44050;48.884;8.762;2023-02-17T03:32:51;2.00;;;1.58;;
58252;SDS011;44050;48.884;8.762;2023-02-17T03:35:22;10.18;;;1.65;;
58252;SDS011;44050;48.884;8.762;2023-02-17T03:37:53;1.92;;;1.52;;
58252;SDS011;44050;48.884;8.762;2023-02-17T03:40:23;1.33;;;1.25;;
58252;SDS011;44050;48.884;8.762;2023-02-17T03:42:55;1.65;;;1.30;;
58252;SDS011;44050;48.884;8.762;2023-02-17T03:45:26;1.23;;;1.15;;
58252;SDS011;44050;48.884;8.762;2023-02-17T03:47:56;1.58;;;1.20;;
58252;SDS011;44050;48.884;8.762;2023-02-17T03:50:27;0.85;;;0.77;;
58252;SDS011;44050;48.884;8.762;2023-02-17T03:52:58;1.52;;;0.80;;
58252;SDS011;44050;48.884;8.762;2023-02-17T03:55:28;3.67;;;0.75;;
58252;SDS011;44050;48.884;8.762;2023-02-17T03:57:59;1.98;;;1.48;;
58252;SDS011;44050;48.884;8.762;2023-02-17T04:00:30;0.70;;;0.70;;
58252;SDS011;44050;48.884;8.762;2023-02-17T04:03:01;1.88;;;1.70;;
58252;SDS011;44050;48.884;8.762;2023-02-17T04:05:31;1.77;;;1.45;;
58252;SDS011;44050;48.884;8.762;2023-02-17T04:08:02;1.95;;;1.17;;
58252;SDS011;44050;48.884;8.762;2023-02-17T04:10:33;1.77;;;1.40;;
58252;SDS011;44050;48.884;8.762;2023-02-17T04:13:03;1.45;;;1.35;;
58252;SDS011;44050;48.884;8.762;2023-02-17T04:15:34;2.35;;;0.70;;
58252;SDS011;44050;48.884;8.762;2023-02-17T04:18:05;1.05;;;0.95;;
58252;SDS011;44050;48.884;8.762;2023-02-17T04:20:36;1.52;;;1.40;;
58252;SDS011;44050;48.884;8.762;2023-02-17T04:23:06;1.90;;;1.02;;
58252;SDS011;44050;48.884;8.762;2023-02-17T04:25:37;1.15;;;1.08;;
58252;SDS011;44050;48.884;8.762;2023-02-17T04:28:08;0.63;;;0.63;;
58252;SDS011;44050;48.884;8.762;2023-02-17T04:30:41;1.52;;;1.25;;
58252;SDS011;44050;48.884;8.762;2023-02-17T04:33:12;4.28;;;1.02;;
58252;SDS011;44050;48.884;8.762;2023-02-17T04:35:43;3.72;;;1.08;;
58252;SDS011;44050;48.884;8.762;2023-02-17T04:38:14;0.88;;;0.88;;
58252;SDS011;44050;48.884;8.762;2023-02-17T04:40:44;2.67;;;0.60;;
58252;SDS011;44050;48.884;8.762;2023-02-17T04:43:15;0.65;;;0.65;;
58252;SDS011;44050;48.884;8.762;2023-02-17T04:45:46;1.20;;;0.95;;
58252;SDS011;44050;48.884;8.762;2023-02-17T04:48:17;0.60;;;0.60;;
58252;SDS011;44050;48.884;8.762;2023-02-17T04:50:48;1.17;;;0.65;;
58252;SDS011;44050;48.884;8.762;2023-02-17T04:53:19;1.00;;;0.73;;
58252;SDS011;44050;48.884;8.762;2023-02-17T04:55:51;1.63;;;1.52;;
58252;SDS011;44050;48.884;8.762;2023-02-17T04:58:22;3.33;;;0.80;;
58252;SDS011;44050;48.884;8.762;2023-02-17T05:00:52;2.15;;;0.73;;
58252;SDS011;44050;48.884;8.762;2023-02-17T05:03:23;0.73;;;0.70;;
58252;SDS011;44050;48.884;8.762;2023-02-17T05:05:54;0.98;;;0.98;;
58252;SDS011;44050;48.884;8.762;2023-02-17T05:08:25;0.65;;;0.65;;
58252;SDS011;44050;48.884;8.762;2023-02-17T05:10:55;2.60;;;0.65;;
58252;SDS011;44050;48.884;8.762;2023-02-17T05:13:27;0.65;;;0.30;;
58252;SDS011;44050;48.884;8.762;2023-02-17T05:15:57;1.33;;;1.23;;
58252;SDS011;44050;48.884;8.762;2023-02-17T05:18:28;1.52;;;0.60;;
58252;SDS011;44050;48.884;8.762;2023-02-17T05:20:59;0.60;;;0.60;;
58252;SDS011;44050;48.884;8.762;2023-02-17T05:23:31;1.58;;;0.85;;
58252;SDS011;44050;48.884;8.762;2023-02-17T05:26:02;3.80;;;1.05;;
58252;SDS011;44050;48.884;8.762;2023-02-17T05:28:33;0.77;;;0.73;;
58252;SDS011;44050;48.884;8.762;2023-02-17T05:31:04;0.77;;;0.77;;
58252;SDS011;44050;48.884;8.762;2023-02-17T05:33:35;2.38;;;0.65;;
58252;SDS011;44050;48.884;8.762;2023-02-17T05:36:07;1.85;;;0.60;;
58252;SDS011;44050;48.884;8.762;2023-02-17T05:38:38;1.02;;;1.00;;
58252;SDS011;44050;48.884;8.762;2023-02-17T05:41:10;1.45;;;0.52;;
58252;SDS011;44050;48.884;8.762;2023-02-17T05:43:41;1.00;;;1.00;;
58252;SDS011;44050;48.884;8.762;2023-02-17T05:46:11;3.97;;;1.13;;
58252;SDS011;44050;48.884;8.762;2023-02-17T05:48:42;1.02;;;0.90;;
58252;SDS011;44050;48.884;8.762;2023-02-17T05:51:13;0.75;;;0.75;;
58252;SDS011;44050;48.884;8.762;2023-02-17T05:53:46;1.58;;;1.33;;
58252;SDS011;44050;48.884;8.762;2023-02-17T05:56:17;1.60;;;0.73;;
58252;SDS011;44050;48.884;8.762;2023-02-17T05:58:47;0.98;;;0.75;;
58252;SDS011;44050;48.884;8.762;2023-02-17T06:01:18;2.33;;;0.90;;
58252;SDS011;44050;48.884;8.762;2023-02-17T06:03:49;1.33;;;0.80;;
58252;SDS011;44050;48.884;8.762;2023-02-17T06:06:20;1.38;;;1.17;;
58252;SDS011;44050;48.884;8.762;2023-02-17T06:08:51;1.17;;;1.13;;
58252;SDS011;44050;48.884;8.762;2023-02-17T06:11:25;1.13;;;1.10;;
58252;SDS011;44050;48.884;8.762;2023-02-17T06:13:56;3.20;;;0.93;;
58252;SDS011;44050;48.884;8.762;2023-02-17T06:16:28;0.95;;;0.95;;
58252;SDS011;44050;48.884;8.762;2023-02-17T06:19:00;1.25;;;1.15;;
58252;SDS011;44050;48.884;8.762;2023-02-17T06:21:32;0.80;;;0.80;;
58252;SDS011;44050;48.884;8.762;2023-02-17T06:24:03;1.13;;;1.02;;
58252;SDS011;44050;48.884;8.762;2023-02-17T06:26:34;0.93;;;0.88;;
58252;SDS011;44050;48.884;8.762;2023-02-17T06:29:11;2.58;;;1.75;;
58252;SDS011;44050;48.884;8.762;2023-02-17T06:31:42;0.98;;;0.98;;
58252;SDS011;44050;48.884;8.762;2023-02-17T06:34:13;0.70;;;0.70;;
58252;SDS011;44050;48.884;8.762;2023-02-17T06:36:49;0.40;;;0.40;;
58252;SDS011;44050;48.884;8.762;2023-02-17T06:39:26;0.68;;;0.60;;
58252;SDS011;44050;48.884;8.762;2023-02-17T06:41:59;2.47;;;1.08;;
58252;SDS011;44050;48.884;8.762;2023-02-17T06:44:34;2.55;;;0.80;;
58252;SDS011;44050;48.884;8.762;2023-02-17T06:47:13;1.48;;;1.38;;
58252;SDS011;44050;48.884;8.762;2023-02-17T06:49:44;1.58;;;1.23;;
58252;SDS011;44050;48.884;8.762;2023-02-17T06:52:17;0.80;;;0.80;;
58252;SDS011;44050;48.884;8.762;2023-02-17T06:54:48;1.27;;;0.77;;
58252;SDS011;44050;48.884;8.762;2023-02-17T06:57:23;1.13;;;1.00;;
58252;SDS011;44050;48.884;8.762;2023-02-17T06:59:56;0.60;;;0.55;;
58252;SDS011;44050;48.884;8.762;2023-02-17T07:02:27;1.02;;;0.88;;
58252;SDS011;44050;48.884;8.762;2023-02-17T07:04:58;1.25;;;0.85;;
58252;SDS011;44050;48.884;8.762;2023-02-17T07:07:28;0.40;;;0.40;;
58252;SDS011;44050;48.884;8.762;2023-02-17T07:10:00;0.38;;;0.38;;
58252;SDS011;44050;48.884;8.762;2023-02-17T07:12:45;0.98;;;0.98;;
58252;SDS011;44050;48.884;8.762;2023-02-17T07:15:30;2.15;;;1.15;;
58252;SDS011;44050;48.884;8.762;2023-02-17T07:18:01;0.47;;;0.40;;
58252;SDS011;44050;48.884;8.762;2023-02-17T07:20:34;0.82;;;0.82;;
58252;SDS011;44050;48.884;8.762;2023-02-17T07:23:05;1.30;;;0.60;;
58252;SDS011;44050;48.884;8.762;2023-02-17T07:25:36;0.80;;;0.60;;
58252;SDS011;44050;48.884;8.762;2023-02-17T07:28:07;1.55;;;0.70;;
58252;SDS011;44050;48.884;8.762;2023-02-17T07:30:41;0.43;;;0.43;;
58252;SDS011;44050;48.884;8.762;2023-02-17T07:33:12;1.10;;;1.02;;
58252;SDS011;44050;48.884;8.762;2023-02-17T07:35:43;0.28;;;0.28;;
58252;SDS011;44050;48.884;8.762;2023-02-17T07:38:14;0.20;;;0.20;;
58252;SDS011;44050;48.884;8.762;2023-02-17T07:40:45;0.60;;;0.60;;
58252;SDS011;44050;48.884;8.762;2023-02-17T07:43:15;0.28;;;0.20;;
58252;SDS011;44050;48.884;8.762;2023-02-17T07:45:52;1.35;;;0.52;;
58252;SDS011;44050;48.884;8.762;2023-02-17T07:48:23;0.43;;;0.40;;
58252;SDS011;44050;48.884;8.762;2023-02-17T07:50:54;0.40;;;0.40;;
58252;SDS011;44050;48.884;8.762;2023-02-17T07:53:25;0.50;;;0.50;;
58252;SDS011;44050;48.884;8.762;2023-02-17T07:55:55;0.35;;;0.35;;
58252;SDS011;44050;48.884;8.762;2023-02-17T07:58:26;0.55;;;0.52;;
58252;SDS011;44050;48.884;8.762;2023-02-17T08:00:57;0.60;;;0.50;;
58252;SDS011;44050;48.884;8.762;2023-02-17T08:03:27;0.32;;;0.32;;
58252;SDS011;44050;48.884;8.762;2023-02-17T08:05:58;0.68;;;0.68;;
58252;SDS011;44050;48.884;8.762;2023-02-17T08:08:29;0.30;;;0.30;;
58252;SDS011;44050;48.884;8.762;2023-02-17T08:11:18;0.43;;;0.43;;
58252;SDS011;44050;48.884;8.762;2023-02-17T08:14:08;0.30;;;0.30;;
58252;SDS011;44050;48.884;8.762;2023-02-17T08:16:45;0.30;;;0.30;;
58252;SDS011;44050;48.884;8.762;2023-02-17T08:19:20;0.45;;;0.45;;
58252;SDS011;44050;48.884;8.762;2023-02-17T08:21:52;1.45;;;0.35;;
58252;SDS011;44050;48.884;8.762;2023-02-17T08:24:26;1.20;;;0.40;;
58252;SDS011;44050;48.884;8.762;2023-02-17T08:26:57;0.63;;;0.63;;
58252;SDS011;44050;48.884;8.762;2023-02-17T08:29:29;0.73;;;0.60;;
58252;SDS011;44050;48.884;8.762;2023-02-17T08:32:00;3.42;;;0.40;;
58252;SDS011;44050;48.884;8.762;2023-02-17T08:34:33;0.50;;;0.40;;
58252;SDS011;44050;48.884;8.762;2023-02-17T08:37:04;0.57;;;0.57;;
58252;SDS011;44050;48.884;8.762;2023-02-17T08:39:36;0.98;;;0.80;;
58252;SDS011;44050;48.884;8.762;2023-02-17T08:42:06;1.25;;;0.73;;
58252;SDS011;44050;48.884;8.762;2023-02-17T08:44:37;0.40;;;0.40;;
58252;SDS011;44050;48.884;8.762;2023-02-17T08:47:08;1.65;;;0.95;;
58252;SDS011;44050;48.884;8.762;2023-02-17T08:49:42;9.63;;;1.38;;
58252;SDS011;44050;48.884;8.762;2023-02-17T08:52:13;0.88;;;0.88;;
58252;SDS011;44050;48.884;8.762;2023-02-17T08:54:44;0.50;;;0.50;;
58252;SDS011;44050;48.884;8.762;2023-02-17T08:57:15;0.43;;;0.43;;
58252;SDS011;44050;48.884;8.762;2023-02-17T08:59:45;0.30;;;0.30;;
58252;SDS011;44050;48.884;8.762;2023-02-17T09:02:17;0.40;;;0.40;;
58252;SDS011;44050;48.884;8.762;2023-02-17T09:04:48;0.45;;;0.45;;
58252;SDS011;44050;48.884;8.762;2023-02-17T09:07:19;1.13;;;0.52;;
58252;SDS011;44050;48.884;8.762;2023-02-17T09:09:51;0.28;;;0.28;;
58252;SDS011;44050;48.884;8.762;2023-02-17T09:12:23;0.52;;;0.52;;
58252;SDS011;44050;48.884;8.762;2023-02-17T09:15:03;1.27;;;0.95;;
58252;SDS011;44050;48.884;8.762;2023-02-17T09:17:43;0.20;;;0.20;;
58252;SDS011;44050;48.884;8.762;2023-02-17T09:20:14;0.60;;;0.60;;
58252;SDS011;44050;48.884;8.762;2023-02-17T09:22:47;0.43;;;0.43;;
58252;SDS011;44050;48.884;8.762;2023-02-17T09:25:17;0.98;;;0.95;;
58252;SDS011;44050;48.884;8.762;2023-02-17T09:27:58;1.45;;;0.80;;
58252;SDS011;44050;48.884;8.762;2023-02-17T09:30:33;4.65;;;1.55;;
58252;SDS011;44050;48.884;8.762;2023-02-17T09:33:04;0.65;;;0.65;;
58252;SDS011;44050;48.884;8.762;2023-02-17T09:35:42;2.78;;;1.50;;
58252;SDS011;44050;48.884;8.762;2023-02-17T09:38:17;2.78;;;0.57;;
58252;SDS011;44050;48.884;8.762;2023-02-17T09:40:49;0.80;;;0.80;;
58252;SDS011;44050;48.884;8.762;2023-02-17T09:43:25;0.77;;;0.77;;
58252;SDS011;44050;48.884;8.762;2023-02-17T09:45:59;1.58;;;0.68;;
58252;SDS011;44050;48.884;8.762;2023-02-17T09:48:31;0.40;;;0.40;;
58252;SDS011;44050;48.884;8.762;2023-02-17T09:51:04;1.40;;;0.60;;
58252;SDS011;44050;48.884;8.762;2023-02-17T09:56:10;0.20;;;0.20;;
58252;SDS011;44050;48.884;8.762;2023-02-17T09:58:48;0.80;;;0.60;;
58252;SDS011;44050;48.884;8.762;2023-02-17T10:01:30;0.15;;;0.15;;
58252;SDS011;44050;48.884;8.762;2023-02-17T10:04:11;2.05;;;1.10;;
58252;SDS011;44050;48.884;8.762;2023-02-17T10:06:45;0.73;;;0.28;;
58252;SDS011;44050;48.884;8.762;2023-02-17T10:11:50;1.13;;;0.90;;
58252;SDS011;44050;48.884;8.762;2023-02-17T10:17:01;0.43;;;0.40;;
58252;SDS011;44050;48.884;8.762;2023-02-17T10:19:35;2.58;;;0.52;;
58252;SDS011;44050;48.884;8.762;2023-02-17T10:22:18;0.45;;;0.40;;
58252;SDS011;44050;48.884;8.762;2023-02-17T10:30:21;0.30;;;0.30;;
58252;SDS011;44050;48.884;8.762;2023-02-17T10:32:58;0.65;;;0.30;;
58252;SDS011;44050;48.884;8.762;2023-02-17T10:40:56;0.35;;;0.35;;
58252;SDS011;44050;48.884;8.762;2023-02-17T10:43:29;0.68;;;0.43;;
58252;SDS011;44050;48.884;8.762;2023-02-17T10:46:02;0.75;;;0.20;;
58252;SDS011;44050;48.884;8.762;2023-02-17T10:48:42;0.22;;;0.22;;
58252;SDS011;44050;48.884;8.762;2023-02-17T10:51:14;0.22;;;0.10;;
58252;SDS011;44050;48.884;8.762;2023-02-17T10:53:47;0.10;;;0.10;;
58252;SDS011;44050;48.884;8.762;2023-02-17T10:56:33;1.08;;;0.30;;
58252;SDS011;44050;48.884;8.762;2023-02-17T10:59:06;0.10;;;0.10;;
58252;SDS011;44050;48.884;8.762;2023-02-17T11:01:40;0.20;;;0.20;;
58252;SDS011;44050;48.884;8.762;2023-02-17T11:04:11;0.32;;;0.32;;
58252;SDS011;44050;48.884;8.762;2023-02-17T11:09:23;0.10;;;0.10;;
58252;SDS011;44050;48.884;8.762;2023-02-17T11:12:12;0.22;;;0.22;;
58252;SDS011;44050;48.884;8.762;2023-02-17T11:14:44;1.38;;;0.20;;
58252;SDS011;44050;48.884;8.762;2023-02-17T11:17:27;0.30;;;0.30;;
58252;SDS011;44050;48.884;8.762;2023-02-17T11:19:59;0.68;;;0.43;;
58252;SDS011;44050;48.884;8.762;2023-02-17T11:22:37;0.10;;;0.10;;
58252;SDS011;44050;48.884;8.762;2023-02-17T11:25:27;0.10;;;0.10;;
58252;SDS011;44050;48.884;8.762;2023-02-17T11:27:59;0.30;;;0.30;;
58252;SDS011;44050;48.884;8.762;2023-02-17T11:30:31;0.20;;;0.20;;
58252;SDS011;44050;48.884;8.762;2023-02-17T11:33:12;0.17;;;0.10;;
58252;SDS011;44050;48.884;8.762;2023-02-17T11:38:17;0.22;;;0.22;;
58252;SDS011;44050;48.884;8.762;2023-02-17T11:40:58;0.55;;;0.55;;
58252;SDS011;44050;48.884;8.762;2023-02-17T11:46:04;0.15;;;0.15;;
58252;SDS011;44050;48.884;8.762;2023-02-17T12:23:23;0.10;;;0.10;;
58252;SDS011;44050;48.884;8.762;2023-02-17T12:29:11;0.00;;;0.00;;
58252;SDS011;44050;48.884;8.762;2023-02-17T12:34:24;0.13;;;0.10;;
58252;SDS011;44050;48.884;8.762;2023-02-17T12:36:57;0.40;;;0.40;;
58252;SDS011;44050;48.884;8.762;2023-02-17T12:39:34;0.10;;;0.10;;
58252;SDS011;44050;48.884;8.762;2023-02-17T12:47:56;0.32;;;0.32;;
58252;SDS011;44050;48.884;8.762;2023-02-17T12:50:30;0.40;;;0.20;;
58252;SDS011;44050;48.884;8.762;2023-02-17T12:53:04;1.85;;;0.22;;
58252;SDS011;44050;48.884;8.762;2023-02-17T12:55:40;0.50;;;0.50;;
58252;SDS011;44050;48.884;8.762;2023-02-17T12:58:19;0.30;;;0.30;;
58252;SDS011;44050;48.884;8.762;2023-02-17T13:03:31;0.10;;;0.10;;
58252;SDS011;44050;48.884;8.762;2023-02-17T13:08:52;0.40;;;0.40;;
58252;SDS011;44050;48.884;8.762;2023-02-17T13:11:28;0.30;;;0.30;;
58252;SDS011;44050;48.884;8.762;2023-02-17T13:14:19;0.30;;;0.30;;
58252;SDS011;44050;48.884;8.762;2023-02-17T13:16:53;0.73;;;0.73;;
58252;SDS011;44050;48.884;8.762;2023-02-17T13:19:28;0.40;;;0.40;;
58252;SDS011;44050;48.884;8.762;2023-02-17T13:22:00;0.15;;;0.13;;
58252;SDS011;44050;48.884;8.762;2023-02-17T13:24:38;0.20;;;0.20;;
58252;SDS011;44050;48.884;8.762;2023-02-17T13:27:21;0.63;;;0.30;;
58252;SDS011;44050;48.884;8.762;2023-02-17T13:29:59;0.32;;;0.32;;
58252;SDS011;44050;48.884;8.762;2023-02-17T13:32:32;0.75;;;0.43;;
58252;SDS011;44050;48.884;8.762;2023-02-17T13:35:17;0.32;;;0.32;;
58252;SDS011;44050;48.884;8.762;2023-02-17T13:43:09;0.57;;;0.30;;
58252;SDS011;44050;48.884;8.762;2023-02-17T13:50:49;1.52;;;0.25;;
58252;SDS011;44050;48.884;8.762;2023-02-17T13:53:30;0.15;;;0.15;;
58252;SDS011;44050;48.884;8.762;2023-02-17T13:58:33;0.10;;;0.10;;
58252;SDS011;44050;48.884;8.762;2023-02-17T14:01:12;0.22;;;0.22;;
58252;SDS011;44050;48.884;8.762;2023-02-17T14:03:48;0.10;;;0.10;;
58252;SDS011;44050;48.884;8.762;2023-02-17T14:08:50;0.30;;;0.30;;
58252;SDS011;44050;48.884;8.762;2023-02-17T14:11:26;0.20;;;0.20;;
58252;SDS011;44050;48.884;8.762;2023-02-17T14:13:57;0.63;;;0.32;;
58252;SDS011;44050;48.884;8.762;2023-02-17T14:19:00;1.98;;;0.57;;
58252;SDS011;44050;48.884;8.762;2023-02-17T14:21:32;0.30;;;0.30;;
58252;SDS011;44050;48.884;8.762;2023-02-17T14:24:03;0.30;;;0.30;;
58252;SDS011;44050;48.884;8.762;2023-02-17T14:29:09;0.17;;;0.17;;
58252;SDS011;44050;48.884;8.762;2023-02-17T14:34:34;1.17;;;0.73;;
58252;SDS011;44050;48.884;8.762;2023-02-17T14:37:16;0.75;;;0.63;;
58252;SDS011;44050;48.884;8.762;2023-02-17T14:39:48;2.10;;;1.25;;
58252;SDS011;44050;48.884;8.762;2023-02-17T14:42:19;1.23;;;0.80;;
58252;SDS011;44050;48.884;8.762;2023-02-17T14:44:49;4.53;;;1.58;;
58252;SDS011;44050;48.884;8.762;2023-02-17T14:47:20;1.25;;;1.05;;
58252;SDS011;44050;48.884;8.762;2023-02-17T14:49:51;1.75;;;0.40;;
58252;SDS011;44050;48.884;8.762;2023-02-17T14:52:23;2.35;;;0.43;;
58252;SDS011;44050;48.884;8.762;2023-02-17T14:54:54;0.30;;;0.30;;
58252;SDS011;44050;48.884;8.762;2023-02-17T14:57:26;0.20;;;0.10;;
58252;SDS011;44050;48.884;8.762;2023-02-17T14:59:57;0.17;;;0.17;;
58252;SDS011;44050;48.884;8.762;2023-02-17T15:02:27;0.20;;;0.20;;
58252;SDS011;44050;48.884;8.762;2023-02-17T15:04:59;0.25;;;0.25;;
58252;SDS011;44050;48.884;8.762;2023-02-17T15:07:30;0.65;;;0.65;;
58252;SDS011;44050;48.884;8.762;2023-02-17T15:10:02;0.40;;;0.32;;
58252;SDS011;44050;48.884;8.762;2023-02-17T15:12:39;0.17;;;0.17;;
58252;SDS011;44050;48.884;8.762;2023-02-17T15:15:14;0.25;;;0.25;;
58252;SDS011;44050;48.884;8.762;2023-02-17T15:17:45;0.38;;;0.38;;
58252;SDS011;44050;48.884;8.762;2023-02-17T15:20:16;0.70;;;0.43;;
58252;SDS011;44050;48.884;8.762;2023-02-17T15:22:47;0.47;;;0.13;;
58252;SDS011;44050;48.884;8.762;2023-02-17T15:25:22;0.20;;;0.20;;
58252;SDS011;44050;48.884;8.762;2023-02-17T15:27:53;0.52;;;0.50;;
58252;SDS011;44050;48.884;8.762;2023-02-17T15:30:34;0.20;;;0.20;;
58252;SDS011;44050;48.884;8.762;2023-02-17T15:33:09;0.30;;;0.30;;
58252;SDS011;44050;48.884;8.762;2023-02-17T15:35:40;0.88;;;0.73;;
58252;SDS011;44050;48.884;8.762;2023-02-17T15:38:12;1.25;;;0.55;;
58252;SDS011;44050;48.884;8.762;2023-02-17T15:40:43;1.42;;;0.32;;
58252;SDS011;44050;48.884;8.762;2023-02-17T15:43:16;0.98;;;0.40;;
58252;SDS011;44050;48.884;8.762;2023-02-17T15:45:48;1.00;;;0.38;;
58252;SDS011;44050;48.884;8.762;2023-02-17T15:48:23;0.43;;;0.43;;
58252;SDS011;44050;48.884;8.762;2023-02-17T15:50:54;0.75;;;0.55;;
58252;SDS011;44050;48.884;8.762;2023-02-17T15:53:25;0.30;;;0.30;;
58252;SDS011;44050;48.884;8.762;2023-02-17T15:55:55;1.00;;;0.50;;
58252;SDS011;44050;48.884;8.762;2023-02-17T15:58:26;0.57;;;0.57;;
58252;SDS011;44050;48.884;8.762;2023-02-17T16:00:58;0.60;;;0.60;;
58252;SDS011;44050;48.884;8.762;2023-02-17T16:03:30;1.17;;;1.17;;
58252;SDS011;44050;48.884;8.762;2023-02-17T16:06:01;0.52;;;0.52;;
58252;SDS011;44050;48.884;8.762;2023-02-17T16:08:32;0.45;;;0.45;;
58252;SDS011;44050;48.884;8.762;2023-02-17T16:11:03;1.10;;;0.65;;
58252;SDS011;44050;48.884;8.762;2023-02-17T16:13:34;1.30;;;0.30;;
58252;SDS011;44050;48.884;8.762;2023-02-17T16:16:04;0.93;;;0.73;;
58252;SDS011;44050;48.884;8.762;2023-02-17T16:18:38;0.38;;;0.38;;
58252;SDS011;44050;48.884;8.762;2023-02-17T16:21:09;0.75;;;0.30;;
58252;SDS011;44050;48.884;8.762;2023-02-17T16:23:41;0.95;;;0.52;;
58252;SDS011;44050;48.884;8.762;2023-02-17T16:26:33;1.42;;;0.63;;
58252;SDS011;44050;48.884;8.762;2023-02-17T16:29:13;0.45;;;0.43;;
58252;SDS011;44050;48.884;8.762;2023-02-17T16:31:45;0.52;;;0.52;;
58252;SDS011;44050;48.884;8.762;2023-02-17T16:34:16;0.60;;;0.60;;
58252;SDS011;44050;48.884;8.762;2023-02-17T16:36:51;0.40;;;0.40;;
58252;SDS011;44050;48.884;8.762;2023-02-17T16:39:26;0.28;;;0.28;;
58252;SDS011;44050;48.884;8.762;2023-02-17T16:41:56;0.30;;;0.30;;
58252;SDS011;44050;48.884;8.762;2023-02-17T16:44:27;1.30;;;0.32;;
58252;SDS011;44050;48.884;8.762;2023-02-17T16:46:58;0.57;;;0.57;;
58252;SDS011;44050;48.884;8.762;2023-02-17T16:49:32;0.30;;;0.30;;
58252;SDS011;44050;48.884;8.762;2023-02-17T16:52:06;1.40;;;0.95;;
58252;SDS011;44050;48.884;8.762;2023-02-17T16:54:46;2.70;;;1.23;;
58252;SDS011;44050;48.884;8.762;2023-02-17T16:57:17;1.20;;;0.70;;
58252;SDS011;44050;48.884;8.762;2023-02-17T16:59:48;0.70;;;0.45;;
58252;SDS011;44050;48.884;8.762;2023-02-17T17:02:19;0.60;;;0.60;;
58252;SDS011;44050;48.884;8.762;2023-02-17T17:04:50;0.80;;;0.80;;
58252;SDS011;44050;48.884;8.762;2023-02-17T17:07:20;1.42;;;0.93;;
58252;SDS011;44050;48.884;8.762;2023-02-17T17:09:51;2.40;;;1.52;;
58252;SDS011;44050;48.884;8.762;2023-02-17T17:12:22;1.52;;;1.42;;
58252;SDS011;44050;48.884;8.762;2023-02-17T17:14:53;7.65;;;5.65;;
58252;SDS011;44050;48.884;8.762;2023-02-17T17:17:23;3.28;;;2.85;;
58252;SDS011;44050;48.884;8.762;2023-02-17T17:19:54;2.47;;;1.63;;
58252;SDS011;44050;48.884;8.762;2023-02-17T17:22:25;1.17;;;1.08;;
58252;SDS011;44050;48.884;8.762;2023-02-17T17:24:56;1.30;;;1.20;;
58252;SDS011;44050;48.884;8.762;2023-02-17T17:27:26;1.48;;;1.38;;
58252;SDS011;44050;48.884;8.762;2023-02-17T17:29:57;4.05;;;1.65;;